Time;durP1;ratioP1;P1;durP2;ratioP2;P2;SDS_P1;SDS_P2;PMS_P1;PMS_P2;Temp;Humidity;BMP_temperature;BMP_pressure;BME280_temperature;BME280_humidity;BME280_pressure;Samples;Min_cycle;Max_cycle;Signal;HPM_P1;HPM_P2
2021/04/17 00:00:12;;;;;;;12.65;8.15;;;1.50;99.90;;;;;;4716066;30;20062;-77
2021/04/17 00:02:44;;;;;;;12.77;8.90;;;1.40;99.90;;;;;;4716359;30;20160;-78
2021/04/17 00:05:11;;;;;;;12.60;8.95;;;1.40;99.90;;;;;;4716256;30;20049;-77
2021/04/17 00:07:43;;;;;;;11.63;8.35;;;1.30;99.90;;;;;;4715530;30;20056;-77
2021/04/17 00:10:15;;;;;;;12.45;8.00;;;1.30;99.90;;;;;;4716518;30;20049;-77
2021/04/17 00:12:46;;;;;;;15.05;8.25;;;1.30;99.90;;;;;;4716374;30;20517;-78
2021/04/17 00:15:13;;;;;;;15.18;9.05;;;1.20;99.90;;;;;;4716945;30;20118;-77
2021/04/17 00:17:44;;;;;;;14.88;8.68;;;1.10;99.90;;;;;;4715871;30;20052;-77
2021/04/17 00:20:16;;;;;;;15.82;8.70;;;1.10;99.90;;;;;;4702387;30;20151;-77
2021/04/17 00:22:47;;;;;;;12.98;7.95;;;1.10;99.90;;;;;;4716897;30;20048;-77
2021/04/17 00:25:18;;;;;;;12.30;8.20;;;1.00;99.90;;;;;;4716072;30;20476;-77
2021/04/17 00:27:45;;;;;;;12.52;8.90;;;1.00;99.90;;;;;;4715598;30;20148;-77
2021/04/17 00:30:16;;;;;;;14.38;9.05;;;0.90;99.90;;;;;;4716248;30;20472;-77
2021/04/17 00:32:48;;;;;;;13.68;9.02;;;0.90;99.90;;;;;;4716680;30;20059;-77
2021/04/17 00:35:19;;;;;;;14.55;8.80;;;0.80;99.90;;;;;;4716945;30;20052;-77
2021/04/17 00:37:50;;;;;;;13.13;8.23;;;0.80;99.90;;;;;;4716408;30;20056;-77
2021/04/17 00:40:17;;;;;;;14.43;9.23;;;0.80;99.90;;;;;;4715943;30;20056;-77
2021/04/17 00:42:48;;;;;;;14.80;9.38;;;0.70;99.90;;;;;;4715687;30;20055;-77
2021/04/17 00:45:19;;;;;;;14.15;8.75;;;0.60;99.90;;;;;;4715861;30;20052;-77
2021/04/17 00:47:46;;;;;;;14.35;8.80;;;0.60;99.90;;;;;;4715411;30;20091;-78
2021/04/17 00:50:18;;;;;;;14.77;9.93;;;0.60;99.90;;;;;;4715957;30;20048;-77
2021/04/17 00:52:49;;;;;;;15.20;9.80;;;0.50;99.90;;;;;;4715559;30;20041;-77
2021/04/17 00:55:23;;;;;;;14.10;9.13;;;0.50;99.90;;;;;;4716926;30;20624;-78
2021/04/17 00:57:54;;;;;;;15.48;9.85;;;0.50;99.90;;;;;;4716218;30;20060;-77
2021/04/17 01:00:21;;;;;;;15.82;9.45;;;0.50;99.90;;;;;;4700574;30;20056;-77
2021/04/17 01:03:03;;;;;;;17.38;10.15;;;0.40;99.90;;;;;;4715267;30;20060;-77
2021/04/17 01:05:38;;;;;;;15.43;8.88;;;0.40;99.90;;;;;;4715458;30;20122;-77
2021/04/17 01:08:20;;;;;;;16.55;9.52;;;0.40;99.90;;;;;;4714640;30;20045;-78
2021/04/17 01:10:53;;;;;;;15.98;9.90;;;0.30;99.90;;;;;;4715296;30;20114;-77
2021/04/17 01:13:21;;;;;;;13.48;9.48;;;0.30;99.90;;;;;;4715400;30;20520;-77
2021/04/17 01:15:48;;;;;;;16.40;9.90;;;0.30;99.90;;;;;;4715366;30;20057;-77
2021/04/17 01:18:23;;;;;;;15.75;9.18;;;0.30;99.90;;;;;;4714731;30;20421;-78
2021/04/17 01:20:56;;;;;;;14.80;9.00;;;0.20;99.90;;;;;;4715675;30;20060;-77
2021/04/17 01:23:42;;;;;;;15.73;10.07;;;0.20;99.90;;;;;;4717393;30;20061;-77
2021/04/17 01:26:18;;;;;;;14.27;9.32;;;0.20;99.90;;;;;;4718939;30;20457;-78
2021/04/17 01:28:52;;;;;;;18.05;9.82;;;0.20;99.90;;;;;;4718218;30;20057;-77
2021/04/17 01:31:22;;;;;;;18.13;10.13;;;0.20;99.90;;;;;;4718606;30;20053;-77
2021/04/17 01:33:57;;;;;;;16.25;9.30;;;0.20;99.90;;;;;;4718267;30;20172;-77
2021/04/17 01:36:29;;;;;;;17.83;9.95;;;0.10;99.90;;;;;;4718227;30;20056;-77
2021/04/17 01:38:57;;;;;;;16.30;9.70;;;0.10;99.90;;;;;;4714046;30;20424;-77
2021/04/17 01:41:31;;;;;;;20.80;10.77;;;0.10;99.90;;;;;;4718274;30;20493;-77
2021/04/17 01:44:04;;;;;;;;;;;0.10;99.90;;;;;;4718732;30;20045;-77
2021/04/17 01:46:44;;;;;;;15.95;9.00;;;0.00;99.90;;;;;;4719219;30;19927;-77
2021/04/17 01:49:17;;;;;;;17.15;10.40;;;0.00;99.90;;;;;;4718022;30;20051;-77
2021/04/17 01:51:51;;;;;;;18.00;9.70;;;-0.10;99.90;;;;;;4718045;30;20051;-76
2021/04/17 01:54:24;;;;;;;;;;;-0.10;99.90;;;;;;4719466;30;20059;-77
2021/04/17 01:56:53;;;;;;;15.32;9.55;;;-0.10;99.90;;;;;;4718225;30;19926;-78
2021/04/17 01:59:27;;;;;;;19.10;10.02;;;-0.20;99.90;;;;;;4718608;30;20128;-77
2021/04/17 02:01:54;;;;;;;15.00;8.85;;;-0.20;99.90;;;;;;4718360;30;20061;-77
2021/04/17 02:04:25;;;;;;;14.68;9.13;;;-0.10;99.90;;;;;;4718044;30;20429;-77
2021/04/17 02:06:56;;;;;;;17.08;9.15;;;-0.20;99.90;;;;;;4719095;30;20041;-77
2021/04/17 02:09:22;;;;;;;16.35;9.45;;;-0.10;99.90;;;;;;4717489;30;20147;-78
2021/04/17 02:11:54;;;;;;;18.73;10.75;;;-0.10;99.90;;;;;;4718027;30;20059;-77
2021/04/17 02:14:25;;;;;;;17.08;9.60;;;-0.10;99.90;;;;;;4718852;30;20528;-77
2021/04/17 02:17:08;;;;;;;19.30;10.68;;;-0.10;99.90;;;;;;4718203;30;20524;-77
2021/04/17 02:20:02;;;;;;;15.23;9.15;;;-0.10;99.90;;;;;;4718100;30;20143;-77
2021/04/17 02:22:37;;;;;;;16.42;9.55;;;-0.10;99.90;;;;;;4717874;30;20061;-77
2021/04/17 02:25:09;;;;;;;13.57;8.55;;;-0.20;99.90;;;;;;4717763;30;20049;-77
2021/04/17 02:27:41;;;;;;;16.92;9.85;;;-0.20;99.90;;;;;;4717550;30;20527;-77
2021/04/17 02:30:13;;;;;;;15.60;10.05;;;-0.20;99.90;;;;;;4717935;30;20049;-77
2021/04/17 02:32:44;;;;;;;19.98;10.85;;;-0.20;99.90;;;;;;4717806;30;20068;-77
2021/04/17 02:35:16;;;;;;;18.40;9.93;;;-0.30;99.90;;;;;;4717436;30;20535;-77
2021/04/17 02:37:47;;;;;;;15.98;9.85;;;-0.30;99.90;;;;;;4717012;30;20063;-78
2021/04/17 02:40:18;;;;;;;16.30;9.55;;;-0.30;99.90;;;;;;4718229;30;20071;-77
2021/04/17 02:42:49;;;;;;;16.60;9.57;;;-0.30;99.90;;;;;;4717448;30;20052;-77
2021/04/17 02:45:21;;;;;;;17.85;10.15;;;-0.40;99.90;;;;;;4717600;30;20059;-77
2021/04/17 02:47:52;;;;;;;16.10;9.60;;;-0.40;99.90;;;;;;4717757;30;20063;-77
2021/04/17 02:50:23;;;;;;;18.85;9.32;;;-0.40;99.90;;;;;;4718261;30;20044;-77
2021/04/17 02:52:55;;;;;;;15.48;9.70;;;-0.40;99.90;;;;;;4717197;30;20048;-78
2021/04/17 02:55:27;;;;;;;17.50;9.85;;;-0.40;99.90;;;;;;4718062;30;20052;-77
2021/04/17 02:57:53;;;;;;;16.58;9.70;;;-0.40;99.90;;;;;;4717191;30;20750;-77
2021/04/17 03:00:24;;;;;;;19.52;11.57;;;-0.40;99.90;;;;;;4717605;30;20063;-77
2021/04/17 03:02:51;;;;;;;14.82;9.38;;;-0.50;99.90;;;;;;4717613;30;20048;-77
2021/04/17 03:05:19;;;;;;;18.13;9.27;;;-0.50;99.90;;;;;;4717204;30;20139;-78
2021/04/17 03:07:50;;;;;;;16.67;10.20;;;-0.50;99.90;;;;;;4716707;30;20056;-77
2021/04/17 03:10:17;;;;;;;16.88;10.25;;;-0.50;99.90;;;;;;4716960;30;20056;-77
2021/04/17 03:12:48;;;;;;;16.90;11.02;;;-0.50;99.90;;;;;;4717064;30;20135;-77
2021/04/17 03:15:19;;;;;;;18.75;9.95;;;-0.50;99.90;;;;;;4703471;30;20505;-77
2021/04/17 03:17:50;;;;;;;21.23;11.02;;;-0.50;99.90;;;;;;4717366;30;20092;-77
2021/04/17 03:20:17;;;;;;;17.90;10.85;;;-0.50;99.90;;;;;;4717203;30;20049;-77
2021/04/17 03:22:48;;;;;;;18.25;10.80;;;-0.60;99.90;;;;;;4717659;30;20535;-77
2021/04/17 03:25:19;;;;;;;17.23;10.55;;;-0.50;99.90;;;;;;4717906;30;20074;-77
2021/04/17 03:27:51;;;;;;;19.02;10.60;;;-0.50;99.90;;;;;;4717321;30;20059;-77
2021/04/17 03:30:27;;;;;;;20.20;10.23;;;-0.50;99.90;;;;;;4717778;30;20057;-77
2021/04/17 03:33:01;;;;;;;19.17;10.63;;;-0.50;99.90;;;;;;4716935;30;20457;-77
2021/04/17 03:35:33;;;;;;;17.25;10.82;;;-0.50;99.90;;;;;;4716899;30;20058;-77
2021/04/17 03:38:04;;;;;;;18.13;9.82;;;-0.40;99.90;;;;;;4716924;30;20056;-78
2021/04/17 03:40:35;;;;;;;18.35;10.30;;;-0.40;99.90;;;;;;4717738;30;20049;-77
2021/04/17 03:43:07;;;;;;;20.52;11.48;;;-0.40;99.90;;;;;;4717440;30;20056;-77
2021/04/17 03:45:38;;;;;;;21.58;12.30;;;-0.40;99.90;;;;;;4716656;30;20059;-77
2021/04/17 03:48:09;;;;;;;19.52;11.38;;;-0.40;99.90;;;;;;4716985;30;20139;-77
2021/04/17 03:50:40;;;;;;;21.50;11.48;;;-0.40;99.90;;;;;;4717276;30;20051;-77
2021/04/17 03:53:12;;;;;;;19.38;11.30;;;-0.30;99.90;;;;;;4717129;30;20121;-78
2021/04/17 03:55:43;;;;;;;20.15;12.02;;;-0.30;99.90;;;;;;4717019;30;20143;-78
2021/04/17 03:58:15;;;;;;;22.42;11.98;;;-0.30;99.90;;;;;;4716941;30;20067;-78
2021/04/17 04:00:46;;;;;;;19.33;10.60;;;-0.30;99.90;;;;;;4702679;30;20493;-77
2021/04/17 04:03:12;;;;;;;19.85;11.52;;;-0.30;99.90;;;;;;4716186;30;20151;-78
2021/04/17 04:05:43;;;;;;;21.23;11.23;;;-0.30;99.90;;;;;;4716838;30;20145;-78
2021/04/17 04:08:15;;;;;;;17.67;10.05;;;-0.30;99.90;;;;;;4716411;30;20151;-78
2021/04/17 04:10:46;;;;;;;19.05;11.07;;;-0.30;99.90;;;;;;4716864;30;20428;-77
2021/04/17 04:13:17;;;;;;;21.20;13.32;;;-0.40;99.90;;;;;;4716180;30;20045;-77
2021/04/17 04:15:43;;;;;;;19.30;10.27;;;-0.50;99.90;;;;;;4731890;30;20084;-78
2021/04/17 04:18:15;;;;;;;17.00;9.88;;;-0.60;99.90;;;;;;4701919;30;20087;-78
2021/04/17 04:20:41;;;;;;;18.08;11.32;;;-0.70;99.90;;;;;;4716433;30;20049;-78
2021/04/17 04:23:12;;;;;;;21.15;11.63;;;-0.80;99.90;;;;;;4716700;30;20513;-77
2021/04/17 04:25:43;;;;;;;25.05;11.90;;;-0.90;99.90;;;;;;4716782;30;20041;-78
2021/04/17 04:28:15;;;;;;;21.85;12.93;;;-1.00;99.90;;;;;;4716308;30;20053;-78
2021/04/17 04:30:46;;;;;;;25.17;13.18;;;-0.90;99.90;;;;;;4716742;30;20534;-77
2021/04/17 04:33:17;;;;;;;22.00;11.23;;;-0.90;99.90;;;;;;4716750;30;20059;-78
2021/04/17 04:35:49;;;;;;;21.38;11.35;;;-0.70;99.90;;;;;;4716246;30;20140;-77
2021/04/17 04:38:21;;;;;;;20.48;11.57;;;-0.60;99.90;;;;;;4716268;30;20059;-77
2021/04/17 04:40:52;;;;;;;19.88;11.38;;;-0.60;99.90;;;;;;4716799;30;20072;-77
2021/04/17 04:43:23;;;;;;;23.73;11.95;;;-0.40;99.90;;;;;;4716676;30;20071;-78
2021/04/17 04:45:55;;;;;;;19.85;11.57;;;-0.40;99.90;;;;;;4716659;30;20056;-78
2021/04/17 04:48:26;;;;;;;23.48;12.75;;;-0.40;99.90;;;;;;4716408;30;20045;-78
2021/04/17 04:50:58;;;;;;;20.95;12.38;;;-0.30;99.90;;;;;;4716508;30;20059;-79
2021/04/17 04:53:29;;;;;;;26.23;12.70;;;-0.20;99.90;;;;;;4720871;30;20428;-81
2021/04/17 04:55:56;;;;;;;23.38;12.02;;;-0.20;99.90;;;;;;4731471;30;20060;-81
2021/04/17 04:58:34;;;;;;;18.33;10.07;;;-0.10;99.90;;;;;;4743611;30;20052;-80
2021/04/17 05:01:08;;;;;;;20.33;11.88;;;-0.10;99.90;;;;;;4769059;30;20066;-83
2021/04/17 05:08:09;;;;;;;19.45;10.73;;;0.00;99.90;;;;;;4769132;30;20047;-83
2021/04/17 05:10:37;;;;;;;21.27;12.15;;;0.10;99.90;;;;;;4753216;30;20048;-83
2021/04/17 05:13:16;;;;;;;23.33;13.30;;;0.20;99.90;;;;;;4767785;30;20057;-83
2021/04/17 05:16:13;;;;;;;22.10;12.52;;;0.30;99.90;;;;;;4757296;30;20078;-83
2021/04/17 05:18:41;;;;;;;34.08;18.02;;;0.30;99.90;;;;;;4754364;30;20048;-83
2021/04/17 05:21:11;;;;;;;31.33;15.43;;;0.40;99.90;;;;;;4750522;30;20039;-81
2021/04/17 05:23:59;;;;;;;24.88;13.63;;;0.40;99.90;;;;;;4759922;30;20067;-81
2021/04/17 05:36:00;;;;;;;25.30;14.57;;;0.50;99.90;;;;;;4776485;30;20101;-83
2021/04/17 05:39:51;;;;;;;31.48;17.05;;;0.60;99.90;;;;;;4774730;30;20074;-80
2021/04/17 05:48:32;;;;;;;27.00;14.88;;;0.70;99.90;;;;;;2602109;24;20018;-81
2021/04/17 08:52:23;;;;;;;27.20;15.75;;;5.40;99.90;;;;;;4855555;24;20059;-83
2021/04/17 08:55:10;;;;;;;24.92;14.73;;;5.60;99.90;;;;;;4781545;29;20086;-82
2021/04/17 08:57:37;;;;;;;25.52;15.57;;;5.60;99.90;;;;;;4775003;30;20055;-81
2021/04/17 09:00:10;;;;;;;25.80;15.20;;;5.70;99.90;;;;;;4784945;30;20074;-83
2021/04/17 09:02:46;;;;;;;24.77;14.55;;;5.80;99.90;;;;;;4784595;29;20047;-82
2021/04/17 09:05:16;;;;;;;23.48;15.52;;;5.80;99.90;;;;;;4805760;29;20138;-83
2021/04/17 09:07:47;;;;;;;26.42;16.27;;;5.90;99.90;;;;;;4792780;29;20142;-82
2021/04/17 09:10:23;;;;;;;23.83;14.55;;;5.90;99.90;;;;;;4792170;29;20050;-82
2021/04/17 09:13:20;;;;;;;25.65;16.23;;;5.90;99.90;;;;;;4791176;29;20051;-83
2021/04/17 09:16:00;;;;;;;22.95;14.35;;;5.80;99.90;;;;;;4801040;29;20054;-82
2021/04/17 09:18:32;;;;;;;21.00;12.73;;;5.90;99.90;;;;;;4791528;29;20051;-82
2021/04/17 09:21:22;;;;;;;24.90;14.77;;;5.90;99.90;;;;;;4804851;29;20607;-82
2021/04/17 09:23:52;;;;;;;24.40;14.65;;;6.00;99.90;;;;;;4789663;29;20054;-82
2021/04/17 09:26:46;;;;;;;24.58;14.63;;;6.10;99.90;;;;;;4790682;29;20051;-82
2021/04/17 09:29:16;;;;;;;17.43;10.93;;;6.10;99.90;;;;;;4776951;29;20047;-83
2021/04/17 09:31:51;;;;;;;20.17;13.48;;;6.10;99.90;;;;;;4803399;29;20051;-78
2021/04/17 09:34:23;;;;;;;18.35;11.95;;;6.20;99.90;;;;;;4772594;30;20085;-82
2021/04/17 09:36:50;;;;;;;15.63;8.38;;;6.30;99.90;;;;;;4787220;30;20074;-83
2021/04/17 09:39:35;;;;;;;12.88;8.05;;;6.40;99.90;;;;;;4772279;30;20079;-83
2021/04/17 09:42:10;;;;;;;13.55;9.63;;;6.60;99.90;;;;;;4775336;30;20055;-82
2021/04/17 09:45:08;;;;;;;14.48;8.73;;;6.90;99.90;;;;;;4772329;30;20081;-82
2021/04/17 09:47:59;;;;;;;16.98;10.70;;;7.10;99.90;;;;;;4776006;30;20057;-82
2021/04/17 09:50:30;;;;;;;21.80;10.93;;;7.30;99.90;;;;;;4787849;30;20056;-82
2021/04/17 09:53:15;;;;;;;9.88;7.47;;;7.30;99.90;;;;;;4774011;30;20077;-82
2021/04/17 09:56:01;;;;;;;15.10;8.85;;;7.30;99.90;;;;;;4774515;30;20055;-82
2021/04/17 10:03:09;;;;;;;13.60;10.13;;;7.40;99.90;;;;;;4878766;24;20114;-81
2021/04/17 10:05:37;;;;;;;11.98;8.60;;;7.50;99.90;;;;;;4770588;30;20070;-80
2021/04/17 10:08:05;;;;;;;13.38;9.02;;;7.60;99.90;;;;;;4764565;30;20548;-80
2021/04/17 10:10:36;;;;;;;13.93;10.15;;;7.40;99.90;;;;;;4762290;30;20435;-80
2021/04/17 10:13:03;;;;;;;13.25;9.05;;;7.40;99.90;;;;;;4802404;24;20060;-81
2021/04/17 10:15:37;;;;;;;11.00;7.82;;;7.50;99.90;;;;;;4760922;30;20056;-81
2021/04/17 10:18:09;;;;;;;11.25;7.75;;;7.50;99.90;;;;;;4761461;30;20051;-83
2021/04/17 10:21:10;;;;;;;12.75;8.20;;;7.50;99.90;;;;;;4762460;30;20055;-81
2021/04/17 10:23:51;;;;;;;12.95;8.95;;;7.40;99.90;;;;;;4798357;24;20048;-81
2021/04/17 10:26:25;;;;;;;14.85;9.75;;;7.50;99.90;;;;;;4761413;30;20063;-81
2021/04/17 10:32:18;;;;;;;13.10;9.43;;;7.70;99.90;;;;;;4756001;30;20524;-81
2021/04/17 10:34:47;;;;;;;12.63;8.57;;;7.70;99.90;;;;;;4756408;30;20071;-81
2021/04/17 10:37:32;;;;;;;12.02;9.10;;;7.70;99.90;;;;;;4758664;30;20132;-81
2021/04/17 10:40:12;;;;;;;12.98;8.82;;;7.70;99.90;;;;;;4760594;30;20051;-81
2021/04/17 10:46:46;;;;;;;11.55;9.05;;;7.70;99.90;;;;;;4888007;24;20091;-79
2021/04/17 10:49:33;;;;;;;12.75;9.00;;;7.70;99.90;;;;;;4758775;29;20146;-79
2021/04/17 10:52:03;;;;;;;12.65;8.82;;;7.80;99.90;;;;;;4758747;30;20142;-79
2021/04/17 10:54:50;;;;;;;14.40;9.52;;;7.80;99.90;;;;;;4774058;30;20123;-79
2021/04/17 10:57:22;;;;;;;11.80;8.73;;;7.90;99.90;;;;;;4759366;30;20127;-79
2021/04/17 10:59:57;;;;;;;16.45;9.40;;;8.00;99.90;;;;;;4759435;30;20047;-79
2021/04/17 11:05:22;;;;;;;14.40;9.65;;;8.10;99.90;;;;;;4765494;30;20055;-79
2021/04/17 11:08:01;;;;;;;14.27;9.65;;;8.00;99.90;;;;;;4752055;30;20054;-78
2021/04/17 11:10:35;;;;;;;13.63;9.70;;;7.90;99.90;;;;;;4752246;30;20055;-79
2021/04/17 11:13:07;;;;;;;16.63;9.65;;;7.90;99.90;;;;;;4739371;30;20501;-79
2021/04/17 11:15:44;;;;;;;13.32;10.07;;;8.00;99.90;;;;;;4735414;30;20125;-79
2021/04/17 11:18:14;;;;;;;13.43;9.10;;;8.10;99.90;;;;;;4734486;30;20114;-80
2021/04/17 11:21:11;;;;;;;12.48;9.45;;;8.20;99.90;;;;;;4735206;30;20057;-78
2021/04/17 11:24:00;;;;;;;13.75;10.18;;;8.10;99.90;;;;;;4911945;24;20055;-78
2021/04/17 11:26:29;;;;;;;14.32;9.90;;;8.20;99.90;;;;;;4790585;30;20559;-78
2021/04/17 11:29:04;;;;;;;14.60;10.63;;;8.20;99.90;;;;;;4774157;30;20052;-78
2021/04/17 11:47:29;;;;;;;12.50;9.55;;;7.50;99.90;;;;;;5168498;24;20127;-79
2021/04/17 11:50:00;;;;;;;14.25;8.75;;;7.40;99.90;;;;;;4739330;30;20048;-81
2021/04/17 11:52:32;;;;;;;16.42;8.32;;;7.40;99.90;;;;;;4766808;30;20691;-76
2021/04/17 11:55:03;;;;;;;16.08;9.80;;;7.70;99.90;;;;;;4737949;30;20526;-81
2021/04/17 11:57:30;;;;;;;13.98;9.60;;;8.00;99.90;;;;;;4754369;30;20047;-80
2021/04/17 11:59:56;;;;;;;13.90;9.88;;;8.10;99.90;;;;;;4754334;30;20059;-79
2021/04/17 12:02:25;;;;;;;17.38;9.70;;;8.00;99.90;;;;;;4754580;30;20417;-80
2021/04/17 12:04:57;;;;;;;11.43;8.65;;;8.00;99.90;;;;;;4740558;30;20456;-80
2021/04/17 12:07:24;;;;;;;12.30;9.18;;;7.90;99.90;;;;;;4754180;30;20112;-80
2021/04/17 12:09:52;;;;;;;12.77;9.68;;;7.90;99.90;;;;;;4740010;30;20139;-80
2021/04/17 12:12:24;;;;;;;14.20;9.35;;;7.80;99.90;;;;;;4754288;30;20052;-80
2021/04/17 12:14:55;;;;;;;12.10;8.95;;;7.80;99.90;;;;;;4740571;30;20142;-80
2021/04/17 12:17:27;;;;;;;16.27;13.02;;;7.80;99.90;;;;;;4740413;30;20044;-81
2021/04/17 12:19:59;;;;;;;23.00;14.52;;;7.90;99.90;;;;;;4740661;30;20066;-80
2021/04/17 12:25:27;;;;;;;19.55;12.15;;;8.00;99.90;;;;;;4775721;30;20462;-80
2021/04/17 12:27:59;;;;;;;13.57;8.95;;;8.10;99.90;;;;;;4773132;30;20050;-79
2021/04/17 12:30:31;;;;;;;16.58;10.30;;;8.10;99.90;;;;;;4772915;30;20059;-80
2021/04/17 12:33:08;;;;;;;15.32;9.65;;;8.20;99.90;;;;;;5408257;24;20064;31
2021/04/17 12:35:41;;;;;;;11.57;9.13;;;8.20;99.90;;;;;;4757541;30;20055;-78
2021/04/17 12:38:13;;;;;;;17.27;10.73;;;8.20;99.90;;;;;;4751828;30;20136;-80
2021/04/17 12:40:40;;;;;;;21.98;10.45;;;8.30;99.90;;;;;;4752785;30;20056;-79
2021/04/17 12:43:13;;;;;;;12.73;8.30;;;8.30;99.90;;;;;;4871266;24;20051;-80
2021/04/17 12:45:40;;;;;;;11.57;9.40;;;8.30;99.90;;;;;;4751760;30;20423;-79
2021/04/17 12:48:14;;;;;;;11.88;8.55;;;8.20;99.90;;;;;;4751262;30;20074;-80
2021/04/17 12:50:41;;;;;;;12.15;8.60;;;8.30;99.60;;;;;;4751840;30;20430;-80
2021/04/17 12:53:13;;;;;;;12.95;8.90;;;8.30;99.50;;;;;;5096506;24;20055;-80
2021/04/17 12:55:39;;;;;;;14.75;9.32;;;8.30;98.80;;;;;;4754250;30;20056;-80
2021/04/17 12:58:11;;;;;;;11.90;8.50;;;8.30;99.60;;;;;;4755068;30;20047;-79
2021/04/17 13:00:37;;;;;;;11.50;8.23;;;8.40;99.80;;;;;;4739436;30;20534;-80
2021/04/17 13:03:09;;;;;;;15.52;11.68;;;8.50;98.40;;;;;;4763605;30;20047;-80
2021/04/17 13:05:36;;;;;;;14.40;9.85;;;8.50;98.70;;;;;;4754133;30;20048;-79
2021/04/17 13:08:07;;;;;;;16.35;9.32;;;8.50;98.70;;;;;;4768989;30;20040;-80
2021/04/17 13:10:34;;;;;;;11.25;8.35;;;8.40;98.50;;;;;;4754287;30;20138;-80
2021/04/17 13:13:06;;;;;;;11.93;8.30;;;8.30;98.70;;;;;;4768473;30;20050;-79
2021/04/17 13:15:33;;;;;;;12.02;8.68;;;8.20;97.80;;;;;;4767514;30;20062;-79
2021/04/17 13:17:59;;;;;;;13.63;8.55;;;8.20;97.30;;;;;;4754159;30;20143;-80
2021/04/17 13:20:31;;;;;;;11.65;8.10;;;8.00;97.50;;;;;;4772334;30;20455;-79
2021/04/17 13:23:03;;;;;;;15.70;9.88;;;8.00;98.20;;;;;;4756812;30;20048;-80
2021/04/17 13:25:30;;;;;;;11.75;9.32;;;8.00;98.80;;;;;;4755732;30;20051;-80
2021/04/17 13:28:03;;;;;;;13.20;9.48;;;8.00;99.40;;;;;;4770119;30;20051;-80
2021/04/17 13:30:31;;;;;;;14.73;9.95;;;8.00;99.30;;;;;;4755951;30;20051;-80
2021/04/17 13:32:58;;;;;;;10.13;8.55;;;8.00;99.60;;;;;;4755811;30;20427;-80
2021/04/17 13:35:30;;;;;;;11.77;8.77;;;8.00;98.80;;;;;;4770546;30;20060;-80
2021/04/17 13:37:58;;;;;;;16.23;9.30;;;7.90;98.90;;;;;;4770306;30;20063;-79
2021/04/17 13:40:25;;;;;;;11.82;8.48;;;7.90;98.70;;;;;;4771554;30;20408;-80
2021/04/17 13:42:57;;;;;;;11.20;8.57;;;7.80;99.30;;;;;;4770329;30;20056;-80
2021/04/17 13:45:24;;;;;;;13.25;9.27;;;7.80;98.20;;;;;;4770351;30;20464;-80
2021/04/17 13:47:55;;;;;;;11.60;9.20;;;7.70;98.60;;;;;;4769999;30;20059;-78
2021/04/17 13:50:22;;;;;;;13.63;9.02;;;7.70;99.70;;;;;;4771550;30;20087;-81
2021/04/17 13:52:54;;;;;;;11.60;9.13;;;7.80;99.60;;;;;;4757013;30;20052;-80
2021/04/17 13:55:21;;;;;;;12.55;8.82;;;7.80;99.80;;;;;;4771444;30;20051;-79
2021/04/17 13:57:52;;;;;;;10.10;7.72;;;7.90;99.70;;;;;;4758149;30;20059;-79
2021/04/17 14:00:24;;;;;;;15.27;9.10;;;7.90;99.50;;;;;;4771266;30;20058;-81
2021/04/17 14:02:50;;;;;;;11.45;8.82;;;7.80;98.40;;;;;;4772711;30;20058;-80
2021/04/17 14:05:17;;;;;;;13.48;9.27;;;7.80;98.40;;;;;;4772567;30;20040;-80
2021/04/17 14:07:49;;;;;;;11.95;9.73;;;7.80;98.10;;;;;;4757321;30;20048;-80
2021/04/17 14:10:21;;;;;;;18.60;11.52;;;7.80;98.50;;;;;;4771400;30;20044;-80
2021/04/17 14:34:13;;;;;;;14.95;10.27;;;7.90;98.40;;;;;;4838630;24;20063;-79
2021/04/17 14:36:40;;;;;;;17.63;10.85;;;7.90;98.70;;;;;;4774214;30;20043;-81
2021/04/17 14:39:08;;;;;;;9.50;7.85;;;7.90;98.60;;;;;;4774077;30;20503;-81
2021/04/17 15:54:55;;;;;;;9.20;6.57;;;7.80;99.60;;;;;;4771039;30;20476;-81
2021/04/17 16:18:06;;;;;;;9.65;6.78;;;7.80;98.90;;;;;;5210597;24;20493;-79
2021/04/17 16:20:42;;;;;;;8.73;6.50;;;7.80;98.70;;;;;;4751478;30;20055;-80
2021/04/17 16:23:13;;;;;;;8.73;6.53;;;7.80;98.90;;;;;;4751791;30;20044;-80
2021/04/17 16:25:40;;;;;;;8.45;6.30;;;7.80;98.50;;;;;;4748989;30;20475;-81
2021/04/17 16:28:12;;;;;;;7.65;6.40;;;7.80;98.10;;;;;;4736557;30;20147;-80
2021/04/17 16:30:43;;;;;;;9.55;7.32;;;7.80;98.20;;;;;;4736890;30;20075;-80
2021/04/17 16:33:15;;;;;;;7.50;6.25;;;7.70;98.20;;;;;;4750359;30;20056;-80
2021/04/17 16:35:46;;;;;;;8.13;6.72;;;7.70;98.20;;;;;;4751245;30;20052;-80
2021/04/17 16:38:17;;;;;;;8.93;7.07;;;7.70;97.90;;;;;;4736262;30;20079;-80
2021/04/17 16:40:49;;;;;;;10.20;6.10;;;7.70;98.10;;;;;;4751025;30;20520;-80
2021/04/17 16:43:20;;;;;;;7.22;5.88;;;7.70;98.30;;;;;;4752067;30;20047;-80
2021/04/17 16:45:52;;;;;;;9.80;6.03;;;7.70;98.60;;;;;;4751094;30;20600;-80
2021/04/17 16:48:23;;;;;;;9.07;6.97;;;7.70;98.70;;;;;;4758855;30;20086;-80
2021/04/17 16:50:56;;;;;;;10.48;6.53;;;7.70;99.50;;;;;;4791091;30;20111;-81
2021/04/17 16:56:17;;;;;;;9.75;8.10;;;7.70;98.90;;;;;;4887990;24;20063;-82
2021/04/17 16:58:45;;;;;;;12.93;7.10;;;7.60;99.70;;;;;;4753659;30;20056;-83
2021/04/17 17:01:20;;;;;;;10.82;7.10;;;7.60;99.80;;;;;;4742112;30;20052;-80
2021/04/17 17:49:36;;;;;;;4.80;4.13;;;6.90;99.90;;;;;;5480230;24;20063;-79
2021/04/17 17:52:07;;;;;;;8.95;4.40;;;6.90;99.90;;;;;;4745347;30;20508;-79
2021/04/17 17:54:39;;;;;;;6.30;4.38;;;6.90;99.90;;;;;;4752688;30;20131;-79
2021/04/17 17:57:10;;;;;;;7.03;3.83;;;6.80;99.90;;;;;;4753333;30;20139;-79
2021/04/17 17:59:41;;;;;;;10.10;4.03;;;6.80;99.90;;;;;;4735045;30;20579;-79
2021/04/17 18:02:12;;;;;;;5.43;4.22;;;6.80;99.90;;;;;;4752878;30;20057;-78
2021/04/17 18:04:44;;;;;;;4.35;3.45;;;6.80;99.90;;;;;;4737544;30;20135;-79
2021/04/17 18:07:15;;;;;;;6.05;4.63;;;6.70;99.90;;;;;;4738207;30;20075;-79
2021/04/17 18:09:47;;;;;;;5.63;3.83;;;6.60;99.90;;;;;;4737521;30;20549;-79
2021/04/17 18:12:19;;;;;;;5.78;4.43;;;6.50;99.90;;;;;;4751691;30;20040;-79
2021/04/17 18:14:50;;;;;;;7.05;4.65;;;6.50;99.90;;;;;;4738391;30;20138;-79
2021/04/17 18:17:21;;;;;;;7.43;4.15;;;6.40;99.90;;;;;;4769637;30;20040;-78
2021/04/17 18:19:52;;;;;;;6.40;4.70;;;6.40;99.90;;;;;;4737455;30;20135;-77
2021/04/17 18:22:24;;;;;;;5.30;4.10;;;6.40;99.90;;;;;;4735765;30;20052;-77
2021/04/17 18:24:55;;;;;;;5.40;4.72;;;6.30;99.90;;;;;;4751385;30;20043;-77
2021/04/17 18:27:27;;;;;;;4.68;3.95;;;6.30;99.90;;;;;;4752114;30;20036;-77
2021/04/17 18:30:01;;;;;;;6.88;4.25;;;6.20;99.90;;;;;;4751580;30;20497;-77
2021/04/17 18:32:33;;;;;;;5.20;4.68;;;6.20;99.90;;;;;;4746247;24;20067;-78
2021/04/17 18:35:01;;;;;;;12.15;9.48;;;6.30;99.90;;;;;;4742258;30;20052;-78
2021/04/17 18:37:33;;;;;;;7.23;6.47;;;6.20;99.90;;;;;;4742875;30;20062;-78
2021/04/17 18:39:59;;;;;;;6.05;5.43;;;6.20;99.90;;;;;;4742175;30;20081;-78
2021/04/17 18:45:28;;;;;;;5.32;4.10;;;6.20;99.90;;;;;;4886120;24;20548;-78
2021/04/17 18:48:00;;;;;;;10.10;4.40;;;6.30;99.90;;;;;;4756352;30;20051;-78
2021/04/17 18:50:33;;;;;;;6.28;4.78;;;6.20;99.90;;;;;;4756801;30;20066;-78
2021/04/17 18:53:30;;;;;;;6.30;4.88;;;6.20;99.90;;;;;;5293026;24;20037;-78
2021/04/17 18:56:03;;;;;;;8.68;5.55;;;6.10;99.90;;;;;;4773047;30;20067;-78
2021/04/17 18:58:30;;;;;;;6.88;4.70;;;6.10;99.90;;;;;;4759505;30;20059;-77
2021/04/17 19:00:56;;;;;;;6.10;4.57;;;6.10;99.90;;;;;;4774604;30;20120;-78
2021/04/17 19:06:12;;;;;;;6.45;3.92;;;6.10;99.90;;;;;;5284575;24;20477;-78
2021/04/17 19:08:41;;;;;;;6.00;4.43;;;6.10;99.90;;;;;;4756406;30;20048;-79
2021/04/17 19:11:07;;;;;;;5.35;4.50;;;6.10;99.90;;;;;;4741583;30;20060;-78
2021/04/17 19:13:34;;;;;;;6.28;4.20;;;6.10;99.90;;;;;;4861908;24;20055;-78
2021/04/17 19:16:01;;;;;;;5.30;3.97;;;6.10;99.90;;;;;;4759061;30;20112;-78
2021/04/17 19:18:35;;;;;;;7.55;4.43;;;6.10;99.90;;;;;;4775135;30;20050;-79
2021/04/17 19:21:06;;;;;;;5.03;4.20;;;6.00;99.90;;;;;;4760100;30;20044;-78
2021/04/17 19:23:38;;;;;;;6.05;4.18;;;6.00;99.90;;;;;;4949993;24;20062;-78
2021/04/17 19:26:05;;;;;;;6.88;4.47;;;5.90;99.90;;;;;;4776610;29;20051;-78
2021/04/17 19:28:33;;;;;;;8.45;5.07;;;5.90;99.90;;;;;;4776264;29;20451;-78
2021/04/17 19:31:05;;;;;;;7.18;4.50;;;5.90;99.90;;;;;;4777647;29;20419;-79
2021/04/17 19:33:33;;;;;;;9.27;4.70;;;5.80;99.90;;;;;;4791087;29;20051;-78
2021/04/17 19:36:05;;;;;;;6.82;4.53;;;5.80;99.90;;;;;;4791084;29;20059;-79
2021/04/17 19:38:37;;;;;;;6.50;5.40;;;5.80;99.90;;;;;;4791052;29;20057;-79
2021/04/17 19:41:09;;;;;;;6.47;5.13;;;5.80;99.90;;;;;;4777270;29;20051;-78
2021/04/17 19:44:39;;;;;;;7.10;5.35;;;5.80;99.90;;;;;;4777465;29;20065;-78
2021/04/17 19:47:11;;;;;;;7.47;5.05;;;5.80;99.90;;;;;;4791067;29;20402;-78
2021/04/17 19:49:43;;;;;;;5.95;4.50;;;5.80;99.90;;;;;;4791015;29;20047;-78
2021/04/17 19:52:15;;;;;;;6.43;4.95;;;5.80;99.90;;;;;;4790040;29;20047;-78
2021/04/17 19:54:48;;;;;;;7.28;5.25;;;5.80;99.90;;;;;;4776418;29;20055;-79